Iver Prosperity — V7LP8 — position and weather

sailwx.info

Track history (hours):
 
Tides and Currents Weather Stations Pressure Air Temp Water Temp Dewpoint Dewpoint Depression Visibility Wind Speed Wind Dir Waves Ship Positions

Iver Prosperity

Last reported at 2018-Feb-18 00:04 UTC. Time now 2018-Feb-18 05:34 UTC.
Position N 42°50' W 069°55'.

Length 184 m; draft 7.4 m.

Type: Ship (hazmat cat A). MMSI: 538002784.

Date/timePositionNaut miles runAvg speedWind from/ knotsBaromVisibWave heightAir tempDewpointWater temp
2018-Feb-18 00:04N 42°50' W 069°55'212.0
2018-Feb-17 23:56N 42°50' W 069°57'512.1
2018-Feb-17 23:30N 42°47' W 070°03'612.1
2018-Feb-17 23:00N 42°44' W 070°10'612.2
2018-Feb-17 22:30N 42°41' W 070°17'612.2
2018-Feb-17 22:01N 42°37' W 070°24'612.0
2018-Feb-17 21:30N 42°34' W 070°31'612.2
2018-Feb-17 21:01N 42°31' W 070°38'612.1
2018-Feb-17 20:30N 42°28' W 070°45'713.5
2018-Feb-17 20:00N 42°24' W 070°52'611.1
2018-Feb-17 19:29N 42°20' W 070°58'4 8.8
2018-Feb-17 19:01N 42°23' W 071°03'2 3.5
2018-Feb-17 18:30N 42°24' W 071°01'0 0.4
2018-Feb-17 17:57N 42°24' W 071°01'0 0.0
2018-Feb-16 21:18N 42°24' W 071°01'0 0.0
2018-Feb-16 17:45N 42°24' W 071°01'0 0.0
2018-Feb-16 17:30N 42°24' W 071°01'1 2.2
2018-Feb-16 17:00N 42°23' W 071°02'2 3.0
2018-Feb-16 16:30N 42°22' W 071°03'4 8.9
2018-Feb-16 16:00N 42°20' W 070°57'510.8
2018-Feb-16 15:30N 42°24' W 070°52'4 8.7
2018-Feb-16 15:00N 42°27' W 070°47'4 7.4
2018-Feb-16 14:30N 42°28' W 070°43'5 9.6
2018-Feb-16 14:00N 42°31' W 070°37'611.2
2018-Feb-16 13:30N 42°34' W 070°31'611.2
2018-Feb-16 13:00N 42°38' W 070°25'611.5
2018-Feb-16 12:30N 42°40' W 070°18'611.3
2018-Feb-16 12:00N 42°44' W 070°12'611.8
2018-Feb-16 11:30N 42°47' W 070°05'5911.5
2018-Feb-16 06:18N 43°20' W 068°57'411.2
2018-Feb-16 05:57N 43°22' W 068°52'511.5
2018-Feb-16 05:28N 43°25' W 068°46'610.9
2018-Feb-16 04:55N 43°28' W 068°39'  
2018-Feb-13 03:29N 42°28' W 070°02'613.7
2018-Feb-13 03:00N 42°26' W 070°10'713.8
2018-Feb-13 02:31N 42°24' W 070°19'713.4
2018-Feb-13 02:01N 42°22' W 070°28'612.6
2018-Feb-13 01:30N 42°16' W 070°30'611.2
2018-Feb-13 01:00N 42°10' W 070°30'5 9.4
2018-Feb-13 00:30N 42°05' W 070°30'5 9.6
2018-Feb-12 23:58N 42°00' W 070°29'52 9.4
2018-Feb-12 18:26N 41°27' W 071°22'511.2
2018-Feb-12 18:00N 41°31' W 071°20'713.8
2018-Feb-12 17:30N 41°38' W 071°18'611.9
2018-Feb-12 17:00N 41°43' W 071°21'4 8.4
2018-Feb-12 16:30N 41°48' W 071°23'1 2.6
2018-Feb-12 16:00N 41°49' W 071°24'0 0.0
2018-Feb-12 15:15N 41°49' W 071°24'0 0.0
2018-Feb-11 17:40N 41°49' W 071°24'0 0.0
2018-Feb-11 17:28N 41°49' W 071°24'0 0.1
2018-Feb-11 17:00N 41°49' W 071°24'0 0.6
2018-Feb-11 16:28N 41°48' W 071°24'0 0.4
2018-Feb-11 15:54N 41°48' W 071°24'0 0.0
2018-Feb-11 15:24N 41°48' W 071°24'0 0.0
2018-Feb-11 15:00N 41°48' W 071°24'0 0.0
2018-Feb-11 14:30N 41°48' W 071°24'0 0.0
2018-Feb-11 13:54N 41°48' W 071°24'0 0.0
2018-Feb-11 13:30N 41°48' W 071°24'0 0.0
2018-Feb-11 13:00N 41°48' W 071°24'0 0.0
2018-Feb-11 12:30N 41°48' W 071°24'0 0.0
2018-Feb-10 17:00N 41°48' W 071°24'0 0.0
2018-Feb-10 16:30N 41°48' W 071°24'0 0.0
2018-Feb-10 15:54N 41°48' W 071°24'0 0.0
2018-Feb-10 15:30N 41°48' W 071°24'0 0.0
2018-Feb-10 15:00N 41°48' W 071°24'0 0.0
2018-Feb-10 14:30N 41°48' W 071°24'0 0.0
2018-Feb-10 13:59N 41°48' W 071°24'0 0.0
2018-Feb-10 13:29N 41°48' W 071°24'0 0.0
2018-Feb-10 12:53N 41°48' W 071°24'0 0.0
2018-Feb-10 12:30N 41°48' W 071°24'0 0.0
2018-Feb-10 11:53N 41°48' W 071°24'0 0.0
2018-Feb-10 11:29N 41°48' W 071°24'0 0.0
2018-Feb-10 11:00N 41°48' W 071°24'0 0.0
2018-Feb-10 10:18N 41°48' W 071°24'0 0.0
2018-Feb-10 09:54N 41°48' W 071°24'0 0.0
2018-Feb-10 09:12N 41°48' W 071°24'0 0.0
2018-Feb-10 09:00N 41°48' W 071°24'0 0.0
2018-Feb-10 07:36N 41°48' W 071°24'0 0.0
2018-Feb-10 07:30N 41°48' W 071°24'0 0.0
2018-Feb-10 07:00N 41°48' W 071°24'0 0.0
2018-Feb-10 01:36N 41°48' W 071°24'0 0.0
2018-Feb-10 01:30N 41°48' W 071°24'0 0.0
2018-Feb-09 23:59N 41°48' W 071°24'0 0.0
2018-Feb-09 23:24N 41°48' W 071°24'0 0.0
2018-Feb-09 22:30N 41°48' W 071°24'14 1.0
2018-Feb-09 09:00N 41°35' W 071°19'  
Track history (hours):
 
Tides and Currents Weather Stations Pressure Air Temp Water Temp Dewpoint Dewpoint Depression Visibility Wind Speed Wind Dir Waves Ship Positions

Iver Prosperity

Last reported at 2018-Feb-18 00:04 UTC. Time now 2018-Feb-18 05:34 UTC.
Position N 42°50' W 069°55'.

Length 184 m; draft 7.4 m.

Type: Ship (hazmat cat A). MMSI: 538002784.

Date/timePositionNaut miles runAvg speedWind from/ knotsBaromVisibWave heightAir tempDewpointWater temp
2018-Feb-18 00:04N 42°50' W 069°55'212.0
2018-Feb-17 23:56N 42°50' W 069°57'512.1
2018-Feb-17 23:30N 42°47' W 070°03'612.1
2018-Feb-17 23:00N 42°44' W 070°10'612.2
2018-Feb-17 22:30N 42°41' W 070°17'612.2
2018-Feb-17 22:01N 42°37' W 070°24'612.0
2018-Feb-17 21:30N 42°34' W 070°31'612.2
2018-Feb-17 21:01N 42°31' W 070°38'612.1
2018-Feb-17 20:30N 42°28' W 070°45'713.5
2018-Feb-17 20:00N 42°24' W 070°52'611.1
2018-Feb-17 19:29N 42°20' W 070°58'4 8.8
2018-Feb-17 19:01N 42°23' W 071°03'2 3.5
2018-Feb-17 18:30N 42°24' W 071°01'0 0.4
2018-Feb-17 17:57N 42°24' W 071°01'0 0.0
2018-Feb-16 21:18N 42°24' W 071°01'0 0.0
2018-Feb-16 17:45N 42°24' W 071°01'0 0.0
2018-Feb-16 17:30N 42°24' W 071°01'1 2.2
2018-Feb-16 17:00N 42°23' W 071°02'2 3.0
2018-Feb-16 16:30N 42°22' W 071°03'4 8.9
2018-Feb-16 16:00N 42°20' W 070°57'510.8
2018-Feb-16 15:30N 42°24' W 070°52'4 8.7
2018-Feb-16 15:00N 42°27' W 070°47'4 7.4
2018-Feb-16 14:30N 42°28' W 070°43'5 9.6
2018-Feb-16 14:00N 42°31' W 070°37'611.2
2018-Feb-16 13:30N 42°34' W 070°31'611.2
2018-Feb-16 13:00N 42°38' W 070°25'611.5
2018-Feb-16 12:30N 42°40' W 070°18'611.3
2018-Feb-16 12:00N 42°44' W 070°12'611.8
2018-Feb-16 11:30N 42°47' W 070°05'5911.5
2018-Feb-16 06:18N 43°20' W 068°57'411.2
2018-Feb-16 05:57N 43°22' W 068°52'511.5
2018-Feb-16 05:28N 43°25' W 068°46'610.9
2018-Feb-16 04:55N 43°28' W 068°39'  
2018-Feb-13 03:29N 42°28' W 070°02'613.7
2018-Feb-13 03:00N 42°26' W 070°10'713.8
2018-Feb-13 02:31N 42°24' W 070°19'713.4
2018-Feb-13 02:01N 42°22' W 070°28'612.6
2018-Feb-13 01:30N 42°16' W 070°30'611.2
2018-Feb-13 01:00N 42°10' W 070°30'5 9.4
2018-Feb-13 00:30N 42°05' W 070°30'5 9.6
2018-Feb-12 23:58N 42°00' W 070°29'52 9.4
2018-Feb-12 18:26N 41°27' W 071°22'511.2
2018-Feb-12 18:00N 41°31' W 071°20'713.8
2018-Feb-12 17:30N 41°38' W 071°18'611.9
2018-Feb-12 17:00N 41°43' W 071°21'4 8.4
2018-Feb-12 16:30N 41°48' W 071°23'1 2.6
2018-Feb-12 16:00N 41°49' W 071°24'0 0.0
2018-Feb-12 15:15N 41°49' W 071°24'0 0.0
2018-Feb-11 17:40N 41°49' W 071°24'0 0.0
2018-Feb-11 17:28N 41°49' W 071°24'0 0.1
2018-Feb-11 17:00N 41°49' W 071°24'0 0.6
2018-Feb-11 16:28N 41°48' W 071°24'0 0.4
2018-Feb-11 15:54N 41°48' W 071°24'0 0.0
2018-Feb-11 15:24N 41°48' W 071°24'0 0.0
2018-Feb-11 15:00N 41°48' W 071°24'0 0.0
2018-Feb-11 14:30N 41°48' W 071°24'0 0.0
2018-Feb-11 13:54N 41°48' W 071°24'0 0.0
2018-Feb-11 13:30N 41°48' W 071°24'0 0.0
2018-Feb-11 13:00N 41°48' W 071°24'0 0.0
2018-Feb-11 12:30N 41°48' W 071°24'0 0.0
2018-Feb-10 17:00N 41°48' W 071°24'0 0.0
2018-Feb-10 16:30N 41°48' W 071°24'0 0.0
2018-Feb-10 15:54N 41°48' W 071°24'0 0.0
2018-Feb-10 15:30N 41°48' W 071°24'0 0.0
2018-Feb-10 15:00N 41°48' W 071°24'0 0.0
2018-Feb-10 14:30N 41°48' W 071°24'0 0.0
2018-Feb-10 13:59N 41°48' W 071°24'0 0.0
2018-Feb-10 13:29N 41°48' W 071°24'0 0.0
2018-Feb-10 12:53N 41°48' W 071°24'0 0.0
2018-Feb-10 12:30N 41°48' W 071°24'0 0.0
2018-Feb-10 11:53N 41°48' W 071°24'0 0.0
2018-Feb-10 11:29N 41°48' W 071°24'0 0.0
2018-Feb-10 11:00N 41°48' W 071°24'0 0.0
2018-Feb-10 10:18N 41°48' W 071°24'0 0.0
2018-Feb-10 09:54N 41°48' W 071°24'0 0.0
2018-Feb-10 09:12N 41°48' W 071°24'0 0.0
2018-Feb-10 09:00N 41°48' W 071°24'0 0.0
2018-Feb-10 07:36N 41°48' W 071°24'0 0.0
2018-Feb-10 07:30N 41°48' W 071°24'0 0.0
2018-Feb-10 07:00N 41°48' W 071°24'0 0.0
2018-Feb-10 01:36N 41°48' W 071°24'0 0.0
2018-Feb-10 01:30N 41°48' W 071°24'0 0.0
2018-Feb-09 23:59N 41°48' W 071°24'0 0.0
2018-Feb-09 23:24N 41°48' W 071°24'0 0.0
2018-Feb-09 22:30N 41°48' W 071°24'14 1.0
2018-Feb-09 09:00N 41°35' W 071°19'  

Dump ship's entire track history